createdAt,value
2017-02-11T00:00:01.346Z,-0.46
2017-02-11T00:00:41.785Z,-0.62
2017-02-11T00:01:22.217Z,-0.57
2017-02-11T00:02:02.560Z,-0.62
2017-02-11T00:02:42.951Z,-0.46
2017-02-11T00:03:23.373Z,-0.6
2017-02-11T00:04:03.798Z,-0.56
2017-02-11T00:04:44.215Z,-0.56
2017-02-11T00:05:24.656Z,-0.59
2017-02-11T00:06:05.054Z,-0.57
2017-02-11T00:06:45.433Z,-0.51
2017-02-11T00:07:25.802Z,-0.62
2017-02-11T00:08:06.205Z,-0.69
2017-02-11T00:08:46.649Z,-0.64
2017-02-11T00:09:27.080Z,-0.67
2017-02-11T00:10:07.495Z,-0.7
2017-02-11T00:10:47.916Z,-0.63
2017-02-11T00:11:28.263Z,-0.72
2017-02-11T00:12:08.698Z,-0.8
2017-02-11T00:12:49.066Z,-0.8
2017-02-11T00:13:30.144Z,-0.7
2017-02-11T00:14:11.443Z,-0.74
2017-02-11T00:14:51.900Z,-0.7
2017-02-11T00:15:32.322Z,-0.74
2017-02-11T00:16:12.728Z,-0.7
2017-02-11T00:16:54.048Z,-0.63
2017-02-11T00:17:34.500Z,-0.72
2017-02-11T00:18:14.867Z,-0.74
2017-02-11T00:18:55.269Z,-0.7
2017-02-11T00:19:35.703Z,-0.7
2017-02-11T00:20:16.147Z,-0.81
2017-02-11T00:20:56.551Z,-0.7
2017-02-11T00:21:36.996Z,-0.82
2017-02-11T00:22:17.384Z,-0.72
2017-02-11T00:22:57.807Z,-0.75
2017-02-11T00:23:38.309Z,-0.72
2017-02-11T00:24:18.676Z,-0.75
2017-02-11T00:24:59.163Z,-0.7
2017-02-11T00:25:39.548Z,-0.69
2017-02-11T00:26:19.944Z,-0.69
2017-02-11T00:27:01.070Z,-0.75
2017-02-11T00:27:42.096Z,-0.81
2017-02-11T00:28:22.500Z,-0.74
2017-02-11T00:29:02.889Z,-0.7
2017-02-11T00:29:43.297Z,-0.56
2017-02-11T00:30:23.687Z,-0.57
2017-02-11T00:31:04.122Z,-0.62
2017-02-11T00:31:44.528Z,-0.67
2017-02-11T00:32:24.916Z,-0.6
2017-02-11T00:33:05.295Z,-0.57
2017-02-11T00:33:45.763Z,-0.63
2017-02-11T00:34:26.152Z,-0.63
2017-02-11T00:35:06.569Z,-0.69
2017-02-11T00:35:47.018Z,-0.66
2017-02-11T00:36:27.452Z,-0.66
2017-02-11T00:37:07.823Z,-0.57
2017-02-11T00:37:48.265Z,-0.51
2017-02-11T00:38:28.693Z,-0.56
2017-02-11T00:39:09.074Z,-0.59
2017-02-11T00:39:49.487Z,-0.56
2017-02-11T00:40:29.892Z,-0.53
2017-02-11T00:41:10.306Z,-0.45
2017-02-11T00:41:50.720Z,-0.42
2017-02-11T00:42:31.164Z,-0.38
2017-02-11T00:43:11.543Z,-0.39
2017-02-11T00:43:51.998Z,-0.33
2017-02-11T00:44:32.431Z,-0.35
2017-02-11T00:45:12.823Z,-0.38
2017-02-11T00:45:53.248Z,-0.26
2017-02-11T00:46:33.685Z,-0.21
2017-02-11T00:47:14.067Z,-0.27
2017-02-11T00:47:54.474Z,-0.21
2017-02-11T00:48:34.892Z,-0.21
2017-02-11T00:49:15.261Z,-0.1
2017-02-11T00:49:55.654Z,-0.15
2017-02-11T00:50:36.066Z,-0.1
2017-02-11T00:51:16.499Z,-0.1
2017-02-11T00:51:56.897Z,-0.1
2017-02-11T00:52:37.287Z,-0.02
2017-02-11T00:53:17.654Z,-0.07
2017-02-11T00:53:58.048Z,-0.06
2017-02-11T00:54:38.464Z,-0.09
2017-02-11T00:55:18.857Z,-0.03
2017-02-11T00:55:59.283Z,0.02
2017-02-11T00:56:39.658Z,0.02
2017-02-11T00:57:20.024Z,0.01
2017-02-11T00:58:00.434Z,0.08
2017-02-11T00:58:40.906Z,0.16
2017-02-11T00:59:21.308Z,0.06
2017-02-11T01:00:01.700Z,-0.02
2017-02-11T01:00:42.156Z,0.09
2017-02-11T01:01:22.566Z,0.08
2017-02-11T01:02:02.967Z,-0.05
2017-02-11T01:02:43.951Z,-0.03
2017-02-11T01:03:24.411Z,0
2017-02-11T01:04:04.792Z,-0.07
2017-02-11T01:04:45.198Z,0
2017-02-11T01:05:28.564Z,-0.09
2017-02-11T01:06:08.978Z,-0.07
2017-02-11T01:06:49.374Z,-0.03
2017-02-11T01:07:29.819Z,-0.05
2017-02-11T01:08:10.174Z,-0.03
2017-02-11T01:08:50.610Z,-0.09
2017-02-11T01:09:32.652Z,-0.03
2017-02-11T01:10:13.812Z,-0.05
2017-02-11T01:10:54.237Z,-0.07
2017-02-11T01:11:34.616Z,-0.06
2017-02-11T01:12:15.021Z,-0.1
2017-02-11T01:12:55.444Z,-0.09
2017-02-11T01:13:35.887Z,-0.09
2017-02-11T01:14:16.339Z,-0.09
2017-02-11T01:14:56.743Z,-0.05
2017-02-11T01:15:37.145Z,-0.05
2017-02-11T01:16:18.451Z,-0.05
2017-02-11T01:16:58.905Z,0.06
2017-02-11T01:17:39.311Z,0.02
2017-02-11T01:18:20.453Z,0.05
2017-02-11T01:19:00.848Z,0.09
2017-02-11T01:19:41.245Z,0.15
2017-02-11T01:20:21.650Z,0.15
2017-02-11T01:21:02.094Z,0.13
2017-02-11T01:21:42.500Z,0.09
2017-02-11T01:22:22.898Z,0.18
2017-02-11T01:23:03.285Z,0.18
2017-02-11T01:23:43.681Z,0.24
2017-02-11T01:24:24.092Z,0.24
2017-02-11T01:25:04.534Z,0.19
2017-02-11T01:25:44.880Z,0.27
2017-02-11T01:26:25.283Z,0.23
2017-02-11T01:27:05.773Z,0.33
2017-02-11T01:27:46.160Z,0.34
2017-02-11T01:28:26.596Z,0.34
2017-02-11T01:29:07.646Z,0.37
2017-02-11T01:29:48.047Z,0.34
2017-02-11T01:30:28.500Z,0.42
2017-02-11T01:31:08.848Z,0.45
2017-02-11T01:31:49.253Z,0.45
2017-02-11T01:32:29.725Z,0.4
2017-02-11T01:33:10.053Z,0.39
2017-02-11T01:33:50.472Z,0.42
2017-02-11T01:34:30.914Z,0.45
2017-02-11T01:35:11.281Z,0.48
2017-02-11T01:35:51.719Z,0.42
2017-02-11T01:36:32.797Z,0.55
2017-02-11T01:37:13.150Z,0.56
2017-02-11T01:37:53.593Z,0.56
2017-02-11T01:38:33.966Z,0.61
2017-02-11T01:39:14.373Z,0.63
2017-02-11T01:39:54.799Z,0.63
2017-02-11T01:40:35.232Z,0.67
2017-02-11T01:41:15.609Z,0.66
2017-02-11T01:41:56.945Z,0.7
2017-02-11T01:42:37.388Z,0.74
2017-02-11T01:43:17.815Z,0.71
2017-02-11T01:43:58.229Z,0.71
2017-02-11T01:44:39.246Z,0.74
2017-02-11T01:45:19.657Z,0.77
2017-02-11T01:46:00.139Z,0.77
2017-02-11T01:46:40.524Z,0.76
2017-02-11T01:47:20.901Z,0.76
2017-02-11T01:48:01.339Z,0.77
2017-02-11T01:48:41.711Z,0.73
2017-02-11T01:49:23.056Z,0.76
2017-02-11T01:50:03.454Z,0.76
2017-02-11T01:50:43.853Z,0.74
2017-02-11T01:51:24.276Z,0.77
2017-02-11T01:52:04.709Z,0.81
2017-02-11T01:52:45.095Z,0.84
2017-02-11T01:53:25.544Z,0.88
2017-02-11T01:54:06.008Z,0.82
2017-02-11T01:54:46.412Z,0.89
2017-02-11T01:55:26.830Z,0.78
2017-02-11T01:56:07.247Z,0.84
2017-02-11T01:56:47.637Z,0.81
2017-02-11T01:57:28.051Z,0.81
2017-02-11T01:58:08.472Z,0.94
2017-02-11T01:58:49.814Z,0.84
2017-02-11T01:59:30.217Z,0.84
2017-02-11T02:00:10.610Z,0.86
2017-02-11T02:00:51.049Z,0.92
2017-02-11T02:01:33.044Z,0.89
2017-02-11T02:02:13.494Z,0.86
2017-02-11T02:02:53.885Z,0.92
2017-02-11T02:03:34.300Z,0.92
2017-02-11T02:04:14.680Z,0.91
2017-02-11T02:04:55.147Z,0.94
2017-02-11T02:05:35.531Z,0.89
2017-02-11T02:06:16.463Z,0.95
2017-02-11T02:06:56.972Z,0.88
2017-02-11T02:07:37.384Z,0.91
2017-02-11T02:08:18.470Z,0.94
2017-02-11T02:08:58.853Z,0.89
2017-02-11T02:09:39.279Z,0.85
2017-02-11T02:10:19.702Z,0.85
2017-02-11T02:11:00.092Z,0.88
2017-02-11T02:11:40.468Z,0.96
2017-02-11T02:12:20.883Z,0.86
2017-02-11T02:13:01.257Z,0.91
2017-02-11T02:13:41.711Z,0.95
2017-02-11T02:14:22.129Z,0.88
2017-02-11T02:15:02.580Z,0.89
2017-02-11T02:15:42.966Z,0.94
2017-02-11T02:16:23.409Z,0.94
2017-02-11T02:17:03.810Z,0.89
2017-02-11T02:17:44.223Z,0.82
2017-02-11T02:18:24.608Z,0.84
2017-02-11T02:19:05.029Z,0.92
2017-02-11T02:19:45.436Z,0.94
2017-02-11T02:20:25.840Z,0.94
2017-02-11T02:21:06.256Z,0.91
2017-02-11T02:21:46.667Z,0.92
2017-02-11T02:22:27.082Z,0.85
2017-02-11T02:23:07.484Z,0.96
2017-02-11T02:23:48.803Z,0.88
2017-02-11T02:24:29.165Z,0.86
2017-02-11T02:25:09.601Z,0.88
2017-02-11T02:25:50.052Z,0.86
2017-02-11T02:26:30.554Z,0.89
2017-02-11T02:27:10.972Z,0.78
2017-02-11T02:27:51.385Z,0.84
2017-02-11T02:28:31.838Z,0.89
2017-02-11T02:29:12.265Z,0.94
2017-02-11T02:29:52.689Z,0.86
2017-02-11T02:30:33.966Z,0.89
2017-02-11T02:31:14.389Z,0.95
2017-02-11T02:31:54.762Z,0.86
2017-02-11T02:32:35.244Z,0.82
2017-02-11T02:33:16.354Z,0.91
2017-02-11T02:33:56.764Z,0.89
2017-02-11T02:34:37.192Z,0.86
2017-02-11T02:35:17.627Z,0.86
2017-02-11T02:35:57.988Z,0.91
2017-02-11T02:36:38.404Z,0.95
2017-02-11T02:37:18.831Z,0.88
2017-02-11T02:37:59.234Z,0.91
2017-02-11T02:38:39.647Z,0.85
2017-02-11T02:39:20.003Z,0.86
2017-02-11T02:40:00.374Z,0.86
2017-02-11T02:40:40.805Z,0.86
2017-02-11T02:41:24.111Z,1
2017-02-11T02:42:04.483Z,0.86
2017-02-11T02:42:44.882Z,0.94
2017-02-11T02:43:26.281Z,0.88
2017-02-11T02:44:06.712Z,0.94
2017-02-11T02:44:47.845Z,0.96
2017-02-11T02:45:29.271Z,0.92
2017-02-11T02:46:10.290Z,0.91
2017-02-11T02:46:50.693Z,0.88
2017-02-11T02:47:31.128Z,0.95
2017-02-11T02:48:11.513Z,0.88
2017-02-11T02:48:51.931Z,0.94
2017-02-11T02:49:32.293Z,0.94
2017-02-11T02:50:12.705Z,0.99
2017-02-11T02:50:53.789Z,0.94
2017-02-11T02:51:35.074Z,0.96
2017-02-11T02:52:15.457Z,0.89
2017-02-11T02:52:55.882Z,0.91
2017-02-11T02:53:36.383Z,0.95
2017-02-11T02:54:17.980Z,0.95
2017-02-11T02:54:59.955Z,0.89
2017-02-11T02:55:40.360Z,0.99
2017-02-11T02:56:21.620Z,0.94
2017-02-11T02:57:02.027Z,1.04
2017-02-11T02:57:42.475Z,1.03
2017-02-11T02:58:22.849Z,1.03
2017-02-11T02:59:04.225Z,1
2017-02-11T02:59:44.647Z,1.02
2017-02-11T03:00:25.044Z,1.02
2017-02-11T03:01:05.448Z,1.02
2017-02-11T03:01:45.818Z,1
2017-02-11T03:02:26.310Z,1.04
2017-02-11T03:03:06.659Z,1
2017-02-11T03:03:47.066Z,1.02
2017-02-11T03:04:28.317Z,0.96
2017-02-11T03:05:09.407Z,1.02
2017-02-11T03:05:51.048Z,1.02
2017-02-11T03:06:31.983Z,1
2017-02-11T03:07:13.145Z,0.95
2017-02-11T03:07:56.126Z,0.92
2017-02-11T03:08:38.048Z,0.85
2017-02-11T03:09:18.463Z,0.96
2017-02-11T03:09:58.880Z,0.99
2017-02-11T03:10:39.290Z,0.99
2017-02-11T03:11:19.702Z,0.88
2017-02-11T03:12:01.079Z,0.94
2017-02-11T03:12:41.470Z,0.89
2017-02-11T06:12:32.153Z,0.99
2017-02-11T06:13:12.513Z,1.02
2017-02-11T06:13:52.933Z,1.04
2017-02-11T06:14:34.273Z,1.06
2017-02-11T06:15:14.713Z,1.02
2017-02-11T06:15:55.179Z,1.09
2017-02-11T06:16:35.570Z,1.03
2017-02-11T06:17:15.956Z,1.02
2017-02-11T06:17:56.414Z,1
2017-02-11T06:18:36.841Z,0.99
2017-02-11T06:19:17.244Z,1.09
2017-02-11T06:19:57.684Z,1.13
2017-02-11T06:20:38.953Z,1.1
2017-02-11T06:21:19.396Z,1.12
2017-02-11T06:22:00.480Z,1.09
2017-02-11T06:22:40.890Z,1.18
2017-02-11T06:23:21.340Z,1.13
2017-02-11T06:24:01.731Z,1.09
2017-02-11T06:24:42.123Z,1.14
2017-02-11T06:25:22.560Z,1.16
2017-02-11T06:26:02.942Z,1.21
2017-02-11T06:26:43.365Z,1.27
2017-02-11T06:27:23.759Z,1.24
2017-02-11T06:28:04.143Z,1.22
2017-02-11T06:28:44.597Z,1.21
2017-02-11T06:29:28.132Z,1.21
2017-02-11T06:30:10.109Z,1.21
2017-02-11T06:30:50.549Z,1.21
2017-02-11T06:31:31.622Z,1.21
2017-02-11T06:32:12.040Z,1.24
2017-02-11T06:32:53.399Z,1.2
2017-02-11T06:33:33.939Z,1.12
2017-02-11T06:34:15.301Z,1.09
2017-02-11T06:34:55.695Z,1.13
2017-02-11T06:35:36.058Z,1.13
2017-02-11T06:36:16.449Z,1.24
2017-02-11T06:36:57.637Z,1.27
2017-02-11T06:37:38.040Z,1.24
2017-02-11T06:38:18.418Z,1.24
2017-02-11T06:38:58.841Z,1.25
2017-02-11T06:39:39.301Z,1.28
2017-02-11T06:40:19.699Z,1.28
2017-02-11T06:41:03.845Z,1.32
2017-02-11T06:41:44.440Z,1.27
2017-02-11T06:42:24.936Z,1.25
2017-02-11T06:43:05.404Z,1.24
2017-02-11T06:43:45.801Z,1.14
2017-02-11T06:44:26.332Z,1.24
2017-02-11T06:45:07.319Z,1.2
2017-02-11T06:45:47.771Z,1.21
2017-02-11T06:46:28.177Z,1.25
2017-02-11T06:47:08.743Z,1.22
2017-02-11T06:47:49.280Z,1.21
2017-02-11T06:48:29.678Z,1.28
2017-02-11T06:49:10.159Z,1.28
2017-02-11T06:49:50.544Z,1.27
2017-02-11T06:50:30.984Z,1.28
2017-02-11T06:51:11.672Z,1.27
2017-02-11T06:51:55.141Z,1.32
2017-02-11T06:52:35.436Z,1.3
2017-02-11T06:53:15.859Z,1.27
2017-02-11T06:53:56.857Z,1.25
2017-02-11T06:54:37.286Z,1.31
2017-02-11T06:55:17.673Z,1.24
2017-02-11T06:55:58.136Z,1.27
2017-02-11T06:56:38.689Z,1.25
2017-02-11T06:57:19.252Z,1.14
2017-02-11T06:57:59.591Z,1.1
2017-02-11T06:58:40.021Z,1.21
2017-02-11T06:59:20.416Z,1.2
2017-02-11T07:00:00.952Z,1.2
2017-02-11T07:00:41.380Z,1.22
2017-02-11T07:01:21.766Z,1.2
2017-02-11T07:02:02.802Z,1.21
2017-02-11T07:02:43.328Z,1.24
2017-02-11T07:03:25.280Z,1.25
2017-02-11T07:04:18.555Z,1.22
2017-02-11T07:05:02.638Z,1.28
2017-02-11T07:05:42.867Z,1.28
2017-02-11T07:06:24.351Z,1.28
2017-02-11T07:07:04.786Z,1.32
2017-02-11T07:07:45.271Z,1.25
2017-02-11T07:08:25.640Z,1.24
2017-02-11T07:09:06.018Z,1.28
2017-02-11T07:09:46.471Z,1.25
2017-02-11T07:10:26.904Z,1.28
2017-02-11T07:11:07.346Z,1.24
2017-02-11T07:11:48.461Z,1.25
2017-02-11T07:12:28.858Z,1.28
2017-02-11T07:13:09.259Z,1.27
2017-02-11T07:13:50.455Z,1.27
2017-02-11T07:14:30.810Z,1.25
2017-02-11T07:15:12.240Z,1.25
2017-02-11T07:15:52.673Z,1.25
2017-02-11T07:16:33.058Z,1.24
2017-02-11T07:17:13.482Z,1.12
2017-02-11T07:17:53.915Z,1.24
2017-02-11T07:18:36.202Z,1.1
2017-02-11T07:19:16.709Z,1.3
2017-02-11T07:19:57.090Z,1.28
2017-02-11T07:20:37.498Z,1.14
2017-02-11T07:21:17.922Z,1.1
2017-02-11T07:21:58.330Z,1.09
2017-02-11T07:22:38.864Z,1.21
2017-02-11T07:23:19.254Z,1.14
2017-02-11T07:24:00.281Z,1.21
2017-02-11T07:24:40.735Z,1.21
2017-02-11T07:25:21.146Z,1.12
2017-02-11T07:26:01.500Z,1.22
2017-02-11T07:26:41.904Z,1.22
2017-02-11T07:27:22.314Z,1.24
2017-02-11T07:28:02.853Z,1.27
2017-02-11T07:28:43.242Z,1.31
2017-02-11T07:29:25.368Z,1.31
2017-02-11T07:30:06.266Z,1.32
2017-02-11T07:30:46.648Z,1.36
2017-02-11T07:31:27.070Z,1.42
2017-02-11T07:32:07.480Z,1.31
2017-02-11T07:32:47.920Z,1.38
2017-02-11T07:33:28.315Z,1.52
2017-02-11T07:34:08.944Z,1.57
2017-02-11T07:34:49.370Z,1.5
2017-02-11T07:35:29.835Z,1.52
2017-02-11T07:36:10.226Z,1.53
2017-02-11T07:36:50.635Z,1.63
2017-02-11T07:37:31.031Z,1.64
2017-02-11T07:38:11.480Z,1.63
2017-02-11T07:38:51.896Z,1.67
2017-02-11T07:39:32.259Z,1.67
2017-02-11T07:40:15.215Z,1.64
2017-02-11T07:40:55.609Z,1.64
2017-02-11T07:41:36.041Z,1.63
2017-02-11T07:42:17.030Z,1.64
2017-02-11T07:42:57.413Z,1.64
2017-02-11T07:43:37.779Z,1.66
2017-02-11T07:44:18.247Z,1.7
2017-02-11T07:44:58.644Z,1.7
2017-02-11T07:45:39.039Z,1.68
2017-02-11T07:46:19.415Z,1.75
2017-02-11T07:46:59.872Z,1.71
2017-02-11T07:47:40.297Z,1.78
2017-02-11T07:48:20.721Z,1.81
2017-02-11T07:49:01.153Z,1.78
2017-02-11T07:49:41.563Z,1.84
2017-02-11T07:50:21.984Z,1.81
2017-02-11T07:51:02.364Z,1.92
2017-02-11T07:51:42.766Z,1.86
2017-02-11T07:52:23.309Z,1.95
2017-02-11T07:53:03.998Z,1.89
2017-02-11T07:53:44.221Z,1.88
2017-02-11T07:54:24.627Z,1.92
2017-02-11T07:55:05.051Z,1.95
2017-02-11T07:55:45.478Z,1.98
2017-02-11T07:56:26.882Z,2.03
2017-02-11T07:57:07.277Z,2.04
2017-02-11T07:57:47.737Z,2.05
2017-02-11T07:58:28.206Z,2.12
2017-02-11T07:59:08.540Z,2.15
2017-02-11T07:59:48.965Z,2.23
2017-02-11T08:00:30.237Z,2.19
2017-02-11T08:01:10.785Z,2.28
2017-02-11T08:01:51.185Z,2.26
2017-02-11T08:02:31.740Z,2.37
2017-02-11T08:03:14.421Z,2.4
2017-02-11T08:03:54.841Z,2.4
2017-02-11T08:04:35.734Z,2.52
2017-02-11T08:05:16.307Z,2.55
2017-02-11T08:05:57.034Z,2.5
2017-02-11T08:06:38.330Z,2.57
2017-02-11T08:07:19.818Z,2.64
2017-02-11T08:08:00.168Z,2.76
2017-02-11T08:08:40.815Z,2.76
2017-02-11T08:09:21.288Z,2.75
2017-02-11T08:10:01.686Z,2.93
2017-02-11T08:10:42.750Z,2.85
2017-02-11T08:11:23.159Z,2.93
2017-02-11T08:12:04.873Z,2.83
2017-02-11T08:12:45.142Z,2.97
2017-02-11T08:13:25.837Z,3.01
2017-02-11T08:14:06.095Z,3.01
2017-02-11T08:14:46.757Z,3.03
2017-02-11T08:15:27.546Z,3.11
2017-02-11T08:16:07.926Z,3.05
2017-02-11T08:16:48.404Z,3.08
2017-02-11T08:17:29.064Z,3.09
2017-02-11T08:18:09.243Z,3.18
2017-02-11T08:18:49.981Z,3.26
2017-02-11T08:19:30.715Z,3.22
2017-02-11T08:20:11.645Z,3.3
2017-02-11T08:20:52.420Z,3.31
2017-02-11T08:21:33.859Z,3.4
2017-02-11T08:22:14.298Z,3.5
2017-02-11T08:22:55.048Z,3.37
2017-02-11T08:23:36.555Z,3.58
2017-02-11T08:24:16.875Z,3.59
2017-02-11T08:24:57.663Z,3.67
2017-02-11T08:25:38.505Z,3.68
2017-02-11T08:26:18.939Z,3.77
2017-02-11T08:26:59.403Z,3.84
2017-02-11T08:27:40.567Z,3.86
2017-02-11T08:28:21.509Z,3.88
2017-02-11T08:29:02.094Z,4.09
2017-02-11T08:29:42.763Z,4.1
2017-02-11T08:30:24.094Z,4.12
2017-02-11T08:31:04.590Z,4.16
2017-02-11T08:31:45.599Z,4.25
2017-02-11T08:32:26.417Z,4.34
2017-02-11T08:34:41.834Z,4.57
2017-02-11T08:35:27.647Z,4.68
2017-02-11T08:36:15.645Z,4.71
2017-02-11T08:37:03.749Z,4.82
2017-02-11T08:37:44.049Z,4.86
2017-02-11T08:38:24.460Z,5.01
2017-02-11T08:39:04.848Z,5.01
2017-02-11T08:39:45.306Z,4.98
2017-02-11T08:40:25.725Z,4.94
2017-02-11T08:41:06.111Z,5.05
2017-02-11T08:41:47.133Z,5.04
2017-02-11T08:42:27.518Z,5.1
2017-02-11T08:43:07.956Z,5.13
2017-02-11T08:43:48.393Z,5.19
2017-02-11T08:44:28.745Z,5.23
2017-02-11T08:45:09.180Z,5.41
2017-02-11T08:45:49.587Z,5.43
2017-02-11T08:46:29.973Z,5.38
2017-02-11T08:47:10.403Z,5.56
2017-02-11T08:47:51.039Z,5.59
2017-02-11T08:48:32.375Z,5.76
2017-02-11T08:49:14.514Z,5.81
2017-02-11T08:49:57.247Z,5.87
2017-02-11T08:50:38.443Z,6.01
2017-02-11T08:51:19.403Z,6.15
2017-02-11T08:52:01.655Z,6.28
2017-02-11T08:52:45.423Z,6.41
2017-02-11T08:55:02.383Z,7.03
2017-02-11T08:55:50.556Z,7.22
2017-02-11T08:56:39.051Z,7.44
2017-02-11T08:57:27.341Z,7.67
2017-02-11T08:58:15.253Z,7.93
2017-02-11T08:59:04.848Z,8.13
2017-02-11T08:59:53.255Z,8.31
2017-02-11T09:00:41.717Z,8.6
2017-02-11T09:01:30.220Z,8.93
2017-02-11T09:02:19.991Z,9.18
2017-02-11T09:03:08.252Z,9.33
2017-02-11T09:03:56.776Z,9.52
2017-02-11T09:04:45.457Z,9.48
2017-02-11T09:05:33.960Z,9.48
2017-02-11T09:06:22.573Z,9.54
2017-02-11T09:07:11.175Z,9.55
2017-02-11T09:07:59.747Z,9.73
2017-02-11T09:08:48.364Z,9.76
2017-02-11T09:09:37.091Z,10.06
2017-02-11T09:10:25.878Z,10.33
2017-02-11T09:11:14.069Z,10.42
2017-02-11T09:12:02.525Z,10.46
2017-02-11T09:12:51.846Z,10.43
2017-02-11T09:13:40.599Z,10.49
2017-02-11T09:14:29.788Z,10.58
2017-02-11T09:15:18.403Z,10.71
2017-02-11T09:16:06.248Z,10.67
2017-02-11T09:16:53.147Z,10.86
2017-02-11T09:17:36.833Z,10.94
2017-02-11T09:18:17.491Z,11.08
2017-02-11T09:18:58.697Z,11.18
2017-02-11T09:19:39.601Z,11.33
2017-02-11T09:20:25.819Z,11.22
2017-02-11T09:21:09.938Z,11.16
2017-02-11T09:21:52.040Z,11.1
2017-02-11T09:22:33.958Z,11
2017-02-11T09:23:17.695Z,10.97
2017-02-11T09:24:01.119Z,10.86
2017-02-11T09:24:45.419Z,10.92
2017-02-11T09:25:29.094Z,10.69
2017-02-11T09:26:09.502Z,10.61
2017-02-11T09:26:53.254Z,10.58
2017-02-11T09:27:36.549Z,10.51
2017-02-11T09:28:21.887Z,10.51
2017-02-11T09:30:14.083Z,10.69
2017-02-11T09:31:02.589Z,10.69
2017-02-11T09:31:51.857Z,10.75
2017-02-11T09:32:39.909Z,10.94
2017-02-11T09:33:27.039Z,11.08
2017-02-11T09:34:16.120Z,11.2
2017-02-11T09:36:37.462Z,11.44
2017-02-11T09:37:18.521Z,11.43
2017-02-11T09:37:59.267Z,11.41
2017-02-11T09:38:43.263Z,11.41
2017-02-11T09:39:25.489Z,11.53
2017-02-11T09:40:06.723Z,11.43
2017-02-11T09:40:47.447Z,11.65
2017-02-11T09:41:33.826Z,11.59
2017-02-11T09:42:14.916Z,11.6
2017-02-11T09:44:19.390Z,11.73
2017-02-11T09:45:08.780Z,11.93
2017-02-11T09:45:56.723Z,12.05
2017-02-11T09:46:40.455Z,12.1
2017-02-11T09:47:25.891Z,12.11
2017-02-11T09:49:39.454Z,12.18
2017-02-11T09:50:23.176Z,12.21
2017-02-11T09:51:03.567Z,12.35
2017-02-11T09:51:44.502Z,12.47
2017-02-11T09:52:25.505Z,12.4
2017-02-11T09:53:06.503Z,12.53
2017-02-11T09:53:50.792Z,12.61
2017-02-11T09:54:32.772Z,12.55
2017-02-11T09:55:14.169Z,12.78
2017-02-11T09:55:55.252Z,12.75
2017-02-11T09:56:36.027Z,12.86
2017-02-11T09:57:16.818Z,12.9
2017-02-11T09:58:00.842Z,13.02
2017-02-11T09:58:41.302Z,13.09
2017-02-11T09:59:23.745Z,13.3
2017-02-11T10:00:04.949Z,13.43
2017-02-11T10:00:45.414Z,13.67
2017-02-11T10:01:27.384Z,13.83
2017-02-11T10:02:07.782Z,14.08
2017-02-11T10:02:50.452Z,14.34
2017-02-11T10:03:31.452Z,14.68
2017-02-11T10:04:12.203Z,14.85
2017-02-11T10:04:52.799Z,15.02
2017-02-11T10:05:34.126Z,15.18
2017-02-11T10:06:14.531Z,15.22
2017-02-11T10:08:39.952Z,15.65
2017-02-11T10:09:20.380Z,15.67
2017-02-11T10:10:03.377Z,15.69
2017-02-11T10:10:44.512Z,15.65
2017-02-11T10:11:24.986Z,15.54
2017-02-11T10:12:08.019Z,15.55
2017-02-11T10:12:48.452Z,15.57
2017-02-11T10:13:29.084Z,15.43
2017-02-11T10:14:09.467Z,15.41
2017-02-11T10:14:49.886Z,15.35
2017-02-11T10:16:40.320Z,14.99
2017-02-11T10:17:21.544Z,15.07
2017-02-11T10:18:02.854Z,15.02
2017-02-11T10:18:44.604Z,14.99
2017-02-11T11:56:32.457Z,15.57
2017-02-11T11:57:13.343Z,15.57
2017-02-11T11:57:54.431Z,15.55
2017-02-11T11:58:34.841Z,15.66
2017-02-11T11:59:15.916Z,15.65
2017-02-11T11:59:56.342Z,15.72
2017-02-11T12:00:36.751Z,15.6
2017-02-11T12:01:19.084Z,15.67
2017-02-11T12:01:59.548Z,15.6
2017-02-11T12:02:39.941Z,15.52
2017-02-11T12:03:21.013Z,15.48
2017-02-11T12:04:01.467Z,15.48
2017-02-11T12:04:41.894Z,15.37
2017-02-11T12:05:22.313Z,15.44
2017-02-11T12:06:02.832Z,15.55
2017-02-11T12:06:44.786Z,15.69
2017-02-11T12:07:25.166Z,15.81
2017-02-11T12:08:05.676Z,15.91
2017-02-11T12:08:46.146Z,16.05
2017-02-11T12:09:26.640Z,16.25
2017-02-11T12:10:07.071Z,16.37
2017-02-11T12:10:48.290Z,16.59
2017-02-11T12:11:28.702Z,16.73
2017-02-11T12:12:10.185Z,16.73
2017-02-11T12:12:50.603Z,16.86
2017-02-11T12:13:31.086Z,17.01
2017-02-11T12:14:11.504Z,16.92
2017-02-11T12:14:51.916Z,16.87
2017-02-11T12:15:32.276Z,17.02
2017-02-11T12:16:13.328Z,16.98
2017-02-11T12:16:54.608Z,17.12
2017-02-11T12:17:35.087Z,17.34
2017-02-11T12:18:15.485Z,17.53
2017-02-11T12:18:56.742Z,17.69
2017-02-11T12:19:37.151Z,17.75
2017-02-11T12:20:17.604Z,17.73
2017-02-11T12:20:58.004Z,17.86
2017-02-11T12:21:38.381Z,17.84
2017-02-11T12:22:18.825Z,17.94
2017-02-11T12:22:59.228Z,18.02
2017-02-11T12:23:39.620Z,18.09
2017-02-11T12:24:20.041Z,18.23
2017-02-11T12:25:00.445Z,18.28
2017-02-11T12:25:40.843Z,18.3
2017-02-11T12:26:21.511Z,18.28
2017-02-11T12:27:01.971Z,18.24
2017-02-11T12:27:42.407Z,18.05
2017-02-11T12:28:22.857Z,18.05
2017-02-11T12:29:03.266Z,18.18
2017-02-11T12:29:43.683Z,18.12
2017-02-11T12:30:24.899Z,17.94
2017-02-11T12:31:05.426Z,17.8
2017-02-11T12:31:45.883Z,17.59
2017-02-11T12:32:26.267Z,17.13
2017-02-11T12:33:07.683Z,16.87
2017-02-11T12:33:48.188Z,16.49
2017-02-11T12:34:28.653Z,16.21
2017-02-11T12:35:09.724Z,15.98
2017-02-11T12:35:53.606Z,15.8
2017-02-11T12:36:34.883Z,15.59
2017-02-11T12:37:15.342Z,15.3
2017-02-11T12:37:55.783Z,15.18
2017-02-11T12:38:36.149Z,15.32
2017-02-11T12:39:17.228Z,15.32
2017-02-11T12:39:57.718Z,15.47
2017-02-11T12:40:38.095Z,15.66
2017-02-11T12:41:19.213Z,15.75
2017-02-11T12:41:59.648Z,15.84
2017-02-11T12:42:41.751Z,16.12
2017-02-11T12:43:22.139Z,16.31
2017-02-11T12:44:02.538Z,16.43
2017-02-11T12:44:43.730Z,16.46
2017-02-11T12:45:24.110Z,16.66
2017-02-11T12:46:04.539Z,16.73
2017-02-11T12:46:45.770Z,16.69
2017-02-11T12:47:26.961Z,16.73
2017-02-11T12:48:07.392Z,16.92
2017-02-11T12:48:49.343Z,16.84
2017-02-11T12:49:30.789Z,17.02
2017-02-11T12:50:12.211Z,17.14
2017-02-11T12:50:52.615Z,17.12
2017-02-11T12:51:33.241Z,17.1
2017-02-11T12:52:13.710Z,16.92
2017-02-11T12:52:54.894Z,17.01
2017-02-11T12:53:35.389Z,16.89
2017-02-11T12:54:21.225Z,16.99
2017-02-11T12:55:01.652Z,16.95
2017-02-11T12:55:42.719Z,17.04
2017-02-11T12:56:23.172Z,17.12
2017-02-11T12:57:03.590Z,17.13
2017-02-11T12:57:43.997Z,17.2
2017-02-11T12:58:25.620Z,17.3
2017-02-11T12:59:06.257Z,17.37
2017-02-11T12:59:48.137Z,17.34
2017-02-11T13:00:29.211Z,17.31
2017-02-11T13:01:09.636Z,17.23
2017-02-11T13:01:52.315Z,17.09
2017-02-11T13:02:34.442Z,16.94
2017-02-11T13:03:15.917Z,16.72
2017-02-11T13:03:58.265Z,16.59
2017-02-11T13:04:40.213Z,16.43
2017-02-11T13:05:21.443Z,16.4
2017-02-11T13:06:03.290Z,16.17
2017-02-11T13:06:44.172Z,16.02
2017-02-11T13:07:24.723Z,15.88
2017-02-11T13:08:06.146Z,15.73
2017-02-11T13:08:48.682Z,15.51
2017-02-11T13:09:30.592Z,15.43
2017-02-11T13:10:12.963Z,15.08
2017-02-11T13:10:56.601Z,15
2017-02-11T13:11:37.667Z,14.96
2017-02-11T13:12:18.911Z,14.81
2017-02-11T13:12:59.374Z,14.61
2017-02-11T13:13:41.550Z,14.62
2017-02-11T13:14:22.275Z,14.62
2017-02-11T13:15:04.126Z,14.56
2017-02-11T13:15:46.059Z,14.66
2017-02-11T13:16:28.512Z,14.51
2017-02-11T13:17:09.397Z,14.45
2017-02-11T13:17:51.453Z,14.22
2017-02-11T13:18:32.393Z,14.08
2017-02-11T13:19:16.793Z,13.83
2017-02-11T13:20:00.416Z,13.62
2017-02-11T13:20:42.319Z,13.49
2017-02-11T13:21:25.076Z,13.33
2017-02-11T13:22:07.796Z,13.2
2017-02-11T13:22:49.101Z,13.06
2017-02-11T13:23:29.577Z,12.91
2017-02-11T13:24:12.739Z,12.94
2017-02-11T13:24:53.319Z,12.88
2017-02-11T13:25:34.735Z,12.91
2017-02-11T13:26:16.395Z,12.95
2017-02-11T13:26:57.121Z,12.95
2017-02-11T13:27:37.742Z,12.94
2017-02-11T13:28:18.296Z,12.87
2017-02-11T13:28:58.773Z,13.01
2017-02-11T13:29:39.346Z,13.02
2017-02-11T13:30:19.799Z,12.94
2017-02-11T13:31:01.721Z,12.83
2017-02-11T13:31:42.173Z,12.62
2017-02-11T13:32:22.657Z,12.61
2017-02-11T13:33:03.051Z,12.45
2017-02-11T13:33:44.249Z,12.39
2017-02-11T13:34:24.766Z,12.2
2017-02-11T13:35:05.190Z,12.15
2017-02-11T13:35:45.688Z,12.02
2017-02-11T13:36:26.011Z,11.99
2017-02-11T13:37:06.428Z,11.85
2017-02-11T13:37:46.768Z,11.7
2017-02-11T13:38:27.628Z,11.62
2017-02-11T13:39:08.530Z,11.59
2017-02-11T13:39:53.405Z,11.58
2017-02-11T13:40:34.124Z,11.51
2017-02-11T13:41:14.642Z,11.45
2017-02-11T13:41:58.818Z,11.48
2017-02-11T13:42:39.291Z,11.37
2017-02-11T13:43:20.614Z,11.38
2017-02-11T13:44:00.912Z,11.34
2017-02-11T13:44:44.338Z,11.19
2017-02-11T13:45:24.786Z,11.05
2017-02-11T13:46:05.144Z,10.94
2017-02-11T13:46:45.628Z,10.72
2017-02-11T13:47:26.877Z,10.62
2017-02-11T13:48:07.367Z,10.45
2017-02-11T13:48:47.705Z,10.45
2017-02-11T13:49:28.211Z,10.3
2017-02-11T13:50:08.740Z,10.2